createdAt,value
2023-11-01T00:00:32.331Z,54.53
2023-11-01T00:02:59.868Z,55.23
2023-11-01T00:05:27.354Z,54.20
2023-11-01T00:07:54.741Z,53.33
2023-11-01T00:10:22.213Z,53.90
2023-11-01T00:12:49.689Z,55.47
2023-11-01T00:15:17.265Z,54.50
2023-11-01T00:17:44.984Z,53.23
2023-11-01T00:20:12.367Z,53.87
2023-11-01T00:22:39.835Z,53.43
2023-11-01T00:25:07.570Z,53.83
2023-11-01T00:27:35.222Z,53.83
2023-11-01T00:30:02.814Z,53.40
2023-11-01T00:32:30.386Z,53.30
2023-11-01T00:34:57.934Z,53.30
2023-11-01T00:37:25.509Z,53.37
2023-11-01T00:39:53.463Z,53.43
2023-11-01T00:42:20.850Z,53.17
2023-11-01T00:44:48.246Z,52.93
2023-11-01T00:47:16.359Z,53.00
2023-11-01T00:49:43.874Z,52.97
2023-11-01T00:52:11.813Z,53.47
2023-11-01T00:54:38.911Z,52.93
2023-11-01T00:57:06.422Z,52.30
2023-11-01T00:59:33.862Z,53.17
2023-11-01T01:02:01.365Z,53.03
2023-11-01T01:04:29.104Z,52.73
2023-11-01T01:06:57.306Z,53.00
2023-11-01T01:09:25.273Z,53.07
2023-11-01T01:11:52.782Z,52.57
2023-11-01T01:14:20.940Z,52.57
2023-11-01T01:16:48.503Z,52.60
2023-11-01T01:19:16.488Z,52.90
2023-11-01T01:21:44.642Z,52.37
2023-11-01T01:24:12.065Z,52.37
2023-11-01T01:26:39.522Z,52.17
2023-11-01T01:29:07.127Z,52.87
2023-11-01T01:31:37.525Z,52.30
2023-11-01T01:34:05.012Z,52.27
2023-11-01T01:36:34.374Z,52.63
2023-11-01T01:39:01.915Z,52.60
2023-11-01T01:41:29.613Z,52.37
2023-11-01T01:43:57.366Z,52.07
2023-11-01T01:46:28.368Z,52.43
2023-11-01T01:48:55.986Z,52.33
2023-11-01T01:51:23.499Z,52.10
2023-11-01T01:53:52.785Z,52.13
2023-11-01T01:56:20.799Z,52.97
2023-11-01T01:58:48.262Z,52.90
2023-11-01T02:01:15.862Z,52.40
2023-11-01T02:03:43.426Z,51.90
2023-11-01T02:06:10.680Z,52.80
2023-11-01T02:08:38.290Z,51.93
2023-11-01T02:11:06.143Z,52.30
2023-11-01T02:13:33.528Z,52.10
2023-11-01T02:16:01.018Z,51.93
2023-11-01T02:18:28.475Z,51.53
2023-11-01T02:20:56.246Z,51.63
2023-11-01T02:23:43.875Z,51.93
2023-11-01T02:26:11.398Z,51.73
2023-11-01T02:28:38.814Z,53.60
2023-11-01T02:31:06.370Z,52.07
2023-11-01T02:33:33.868Z,52.07
2023-11-01T02:36:01.362Z,51.63
2023-11-01T02:38:28.812Z,51.87
2023-11-01T02:40:56.240Z,51.93
2023-11-01T02:43:23.655Z,51.87
2023-11-01T02:45:51.074Z,51.87
2023-11-01T02:48:18.490Z,52.03
2023-11-01T02:50:45.942Z,51.93
2023-11-01T02:53:13.228Z,52.43
2023-11-01T02:55:42.188Z,51.70
2023-11-01T02:58:09.644Z,52.33
2023-11-01T03:00:37.236Z,52.47
2023-11-01T03:03:04.818Z,52.20
2023-11-01T03:05:32.323Z,52.23
2023-11-01T03:07:59.821Z,52.70
2023-11-01T03:10:27.215Z,52.77
2023-11-01T03:12:54.598Z,52.63
2023-11-01T03:15:22.085Z,52.70
2023-11-01T03:17:49.647Z,52.57
2023-11-01T03:20:17.211Z,52.80
2023-11-01T03:22:44.760Z,52.63
2023-11-01T03:25:12.322Z,53.07
2023-11-01T03:27:39.813Z,53.53
2023-11-01T03:30:08.696Z,52.47
2023-11-01T03:32:36.294Z,53.03
2023-11-01T03:35:04.003Z,52.47
2023-11-01T03:37:31.773Z,52.70
2023-11-01T03:39:59.194Z,53.20
2023-11-01T03:42:26.668Z,52.63
2023-11-01T03:44:56.998Z,53.00
2023-11-01T03:47:24.575Z,53.13
2023-11-01T03:49:53.224Z,52.60
2023-11-01T03:52:21.925Z,53.23
2023-11-01T03:54:49.403Z,51.73
2023-11-01T03:57:17.825Z,52.70
2023-11-01T03:59:45.226Z,53.00
2023-11-01T04:02:12.620Z,52.80
2023-11-01T04:04:40.128Z,53.23
2023-11-01T04:07:07.603Z,53.00
2023-11-01T04:09:35.033Z,52.27
2023-11-01T04:12:02.447Z,53.33
2023-11-01T04:14:29.926Z,53.33
2023-11-01T04:16:57.454Z,52.77
2023-11-01T04:19:24.942Z,53.30
2023-11-01T04:21:52.435Z,53.10
2023-11-01T04:24:20.606Z,52.87
2023-11-01T04:26:48.081Z,53.27
2023-11-01T04:29:15.534Z,52.83
2023-11-01T04:31:42.963Z,52.43
2023-11-01T04:34:11.679Z,53.20
2023-11-01T04:36:39.100Z,53.17
2023-11-01T04:39:06.512Z,53.97
2023-11-01T04:41:33.972Z,53.73
2023-11-01T04:44:01.388Z,52.90
2023-11-01T04:46:28.874Z,53.93
2023-11-01T04:48:56.396Z,52.87
2023-11-01T04:51:23.756Z,54.70
2023-11-01T04:53:51.136Z,53.20
2023-11-01T04:56:18.582Z,52.20
2023-11-01T04:58:46.003Z,52.60
2023-11-01T05:01:14.318Z,51.80
2023-11-01T05:03:41.865Z,51.97
2023-11-01T05:06:09.621Z,52.03
2023-11-01T05:08:37.523Z,52.13
2023-11-01T05:11:06.183Z,52.47
2023-11-01T05:13:34.020Z,52.53
2023-11-01T05:16:01.508Z,53.37
2023-11-01T05:18:29.186Z,52.23
2023-11-01T05:20:56.599Z,52.10
2023-11-01T05:23:24.336Z,52.03
2023-11-01T05:25:51.722Z,52.27
2023-11-01T05:28:19.465Z,51.77
2023-11-01T05:30:49.644Z,51.97
2023-11-01T05:33:20.751Z,52.07
2023-11-01T05:35:49.582Z,51.87
2023-11-01T05:38:17.131Z,51.53
2023-11-01T05:40:44.616Z,51.93
2023-11-01T05:43:12.041Z,52.57
2023-11-01T05:45:39.509Z,52.57
2023-11-01T05:48:10.049Z,52.37
2023-11-01T05:50:38.258Z,51.57
2023-11-01T05:53:10.733Z,52.30
2023-11-01T05:55:54.633Z,51.73
2023-11-01T05:58:29.752Z,51.97
2023-11-01T06:00:57.612Z,51.93
2023-11-01T06:03:27.214Z,51.57
2023-11-01T06:05:58.906Z,52.00
2023-11-01T06:08:26.783Z,52.03
2023-11-01T06:10:55.460Z,51.67
2023-11-01T06:13:23.018Z,52.27
2023-11-01T06:15:52.817Z,52.23
2023-11-01T06:18:22.104Z,52.13
2023-11-01T06:20:49.621Z,51.90
2023-11-01T06:23:17.164Z,52.20
2023-11-01T06:25:45.509Z,51.90
2023-11-01T06:28:12.862Z,51.90
2023-11-01T06:30:40.325Z,51.23
2023-11-01T06:33:08.037Z,53.50
2023-11-01T06:35:35.624Z,52.43
2023-11-01T06:38:03.197Z,52.23
2023-11-01T06:40:31.420Z,52.03
2023-11-01T06:42:58.962Z,51.50
2023-11-01T06:45:27.338Z,52.27
2023-11-01T06:47:54.904Z,51.87
2023-11-01T06:50:23.258Z,51.87
2023-11-01T06:52:50.826Z,52.10
2023-11-01T06:55:18.234Z,51.27
2023-11-01T06:57:45.790Z,51.77
2023-11-01T07:00:14.328Z,51.73
2023-11-01T07:02:41.792Z,51.97
2023-11-01T07:05:09.181Z,51.33
2023-11-01T07:07:36.593Z,51.93
2023-11-01T07:10:04.267Z,52.10
2023-11-01T07:12:31.652Z,51.93
2023-11-01T07:14:59.069Z,51.07
2023-11-01T07:17:29.499Z,51.03
2023-11-01T07:19:58.364Z,51.23
2023-11-01T07:22:26.451Z,51.80
2023-11-01T07:24:54.215Z,51.87
2023-11-01T07:27:21.675Z,51.93
2023-11-01T07:29:49.102Z,55.97
2023-11-01T07:32:18.080Z,115.87
2023-11-01T07:34:45.765Z,52.03
2023-11-01T07:37:13.697Z,123.70
2023-11-01T07:39:41.119Z,55.60
2023-11-01T07:42:08.583Z,52.73
2023-11-01T07:44:36.145Z,53.77
2023-11-01T07:47:03.595Z,53.73
2023-11-01T07:49:31.008Z,52.10
2023-11-01T07:51:58.587Z,52.10
2023-11-01T07:54:26.019Z,51.60
2023-11-01T07:56:53.485Z,52.40
2023-11-01T07:59:21.139Z,51.30
2023-11-01T08:01:48.707Z,52.13
2023-11-01T08:04:18.449Z,52.10
2023-11-01T08:06:47.205Z,52.83
2023-11-01T08:09:16.409Z,52.70
2023-11-01T08:11:44.263Z,51.67
2023-11-01T08:14:11.685Z,53.77
2023-11-01T08:16:39.192Z,55.67
2023-11-01T08:19:06.846Z,53.70
2023-11-01T08:21:34.401Z,57.43
2023-11-01T08:24:01.758Z,56.23
2023-11-01T08:26:29.969Z,56.73
2023-11-01T08:28:57.654Z,53.67
2023-11-01T08:31:25.207Z,52.43
2023-11-01T08:33:52.884Z,51.47
2023-11-01T08:36:20.417Z,51.47
2023-11-01T08:38:47.875Z,52.83
2023-11-01T08:41:17.505Z,51.40
2023-11-01T08:43:45.144Z,52.50
2023-11-01T08:46:13.772Z,53.27
2023-11-01T08:48:41.183Z,53.47
2023-11-01T08:51:11.746Z,52.03
2023-11-01T08:53:39.241Z,52.00
2023-11-01T08:56:07.085Z,52.37
2023-11-01T08:58:34.644Z,52.20
2023-11-01T09:01:02.162Z,55.47
2023-11-01T09:03:30.784Z,52.43
2023-11-01T09:05:58.649Z,55.47
2023-11-01T09:08:26.491Z,63.63
2023-11-01T09:10:54.786Z,53.50
2023-11-01T09:13:23.892Z,63.50
2023-11-01T09:15:51.694Z,52.27
2023-11-01T09:18:20.081Z,52.03
2023-11-01T09:20:47.789Z,54.23
2023-11-01T09:23:15.455Z,53.83
2023-11-01T09:25:43.002Z,64.33
2023-11-01T09:28:10.401Z,53.50
2023-11-01T09:30:37.840Z,54.40
2023-11-01T09:33:05.347Z,61.20
2023-11-01T09:35:32.858Z,52.20
2023-11-01T09:38:00.267Z,52.60
2023-11-01T09:40:28.317Z,53.03
2023-11-01T09:42:55.753Z,53.97
2023-11-01T09:45:23.343Z,53.03
2023-11-01T09:47:51.439Z,53.70
2023-11-01T09:50:19.710Z,52.00
2023-11-01T09:52:47.187Z,52.40
2023-11-01T09:55:17.351Z,52.93
2023-11-01T09:57:45.926Z,52.37
2023-11-01T10:00:14.352Z,52.47
2023-11-01T10:02:41.838Z,53.53
2023-11-01T10:05:09.341Z,54.53
2023-11-01T10:07:36.757Z,52.67
2023-11-01T10:10:05.237Z,52.53
2023-11-01T10:12:32.848Z,52.87
2023-11-01T10:15:02.417Z,52.67
2023-11-01T10:17:30.056Z,53.17
2023-11-01T10:19:58.076Z,52.93
2023-11-01T10:22:26.749Z,52.77
2023-11-01T10:24:58.608Z,52.53
2023-11-01T10:27:26.111Z,52.53
2023-11-01T10:29:54.399Z,54.33
2023-11-01T10:32:24.398Z,53.60
2023-11-01T10:34:52.027Z,51.63
2023-11-01T10:37:19.847Z,51.50
2023-11-01T10:39:47.439Z,52.10
2023-11-01T10:42:18.503Z,52.33
2023-11-01T10:44:45.960Z,55.20
2023-11-01T10:47:15.155Z,53.63
2023-11-01T10:49:43.819Z,53.00
2023-11-01T10:52:12.597Z,55.17
2023-11-01T10:54:40.429Z,52.63
2023-11-01T10:57:08.332Z,53.53
2023-11-01T11:00:05.815Z,53.93
2023-11-01T11:03:05.685Z,51.17
2023-11-01T11:05:41.109Z,51.23
2023-11-01T11:08:12.062Z,51.80
2023-11-01T11:10:40.669Z,51.03
2023-11-01T11:13:11.206Z,51.63
2023-11-01T11:15:47.667Z,51.27
2023-11-01T11:18:23.496Z,51.23
2023-11-01T11:21:00.828Z,51.57
2023-11-01T11:23:40.597Z,51.23
2023-11-01T11:26:08.082Z,51.27
2023-11-01T11:28:41.820Z,50.83
2023-11-01T11:31:22.262Z,51.20
2023-11-01T11:33:49.750Z,51.77
2023-11-01T11:36:21.946Z,51.60
2023-11-01T11:38:56.912Z,51.80
2023-11-01T11:41:46.693Z,52.53
2023-11-01T11:44:20.952Z,57.17
2023-11-01T11:46:51.092Z,80.40
2023-11-01T11:49:31.820Z,51.73
2023-11-01T11:52:15.084Z,54.47
2023-11-01T11:54:42.894Z,52.83
2023-11-01T11:57:14.619Z,53.13
2023-11-01T11:59:43.593Z,53.40
2023-11-01T12:02:11.976Z,52.00
2023-11-01T12:04:44.045Z,52.97
2023-11-01T12:07:22.705Z,52.87
2023-11-01T12:09:51.769Z,52.77
2023-11-01T12:12:19.226Z,52.67
2023-11-01T12:14:47.904Z,52.27
2023-11-01T12:17:15.470Z,52.63
2023-11-01T12:19:47.532Z,52.63
2023-11-01T12:22:18.478Z,52.07
2023-11-01T12:24:46.451Z,52.70
2023-11-01T12:27:14.732Z,52.17
2023-11-01T12:29:50.807Z,52.77
2023-11-01T12:32:24.897Z,55.07
2023-11-01T12:34:52.317Z,53.50
2023-11-01T12:37:25.469Z,52.67
2023-11-01T12:40:06.139Z,51.63
2023-11-01T12:42:35.555Z,53.83
2023-11-01T12:45:04.608Z,60.70
2023-11-01T12:47:45.089Z,57.07
2023-11-01T12:50:25.548Z,54.43
2023-11-01T12:52:53.297Z,59.50
2023-11-01T12:55:21.150Z,71.40
2023-11-01T12:57:57.023Z,53.20
2023-11-01T13:00:25.278Z,98.70
2023-11-01T13:02:53.937Z,55.60
2023-11-01T13:05:22.063Z,53.80
2023-11-01T13:07:50.323Z,54.53
2023-11-01T13:10:17.718Z,76.13
2023-11-01T13:12:46.741Z,54.53
2023-11-01T13:15:14.983Z,53.90
2023-11-01T13:17:42.708Z,53.33
2023-11-01T13:20:10.217Z,53.70
2023-11-01T13:22:37.851Z,55.60
2023-11-01T13:25:05.559Z,83.07
2023-11-01T13:27:32.909Z,53.97
2023-11-01T13:30:00.440Z,55.57
2023-11-01T13:32:27.950Z,60.27
2023-11-01T13:34:56.083Z,57.10
2023-11-01T13:37:23.535Z,69.97
2023-11-01T13:39:51.025Z,55.17
2023-11-01T13:42:18.586Z,55.53
2023-11-01T13:44:46.097Z,55.97
2023-11-01T13:47:14.115Z,56.43
2023-11-01T13:49:43.181Z,55.30
2023-11-01T13:52:12.839Z,53.83
2023-11-01T13:54:40.720Z,53.87
2023-11-01T13:57:08.870Z,53.53
2023-11-01T13:59:36.557Z,54.13
2023-11-01T14:02:04.274Z,53.30
2023-11-01T14:04:32.981Z,54.80
2023-11-01T14:07:00.501Z,55.10
2023-11-01T14:09:28.020Z,56.03
2023-11-01T14:11:55.601Z,54.37
2023-11-01T14:14:24.178Z,57.00
2023-11-01T14:16:52.280Z,57.57
2023-11-01T14:19:19.927Z,58.87
2023-11-01T14:21:47.577Z,57.03
2023-11-01T14:24:19.026Z,58.37
2023-11-01T14:26:47.596Z,62.83
2023-11-01T14:29:15.091Z,55.53
2023-11-01T14:31:43.255Z,55.57
2023-11-01T14:34:10.839Z,56.50
2023-11-01T14:36:38.409Z,54.50
2023-11-01T14:39:06.008Z,55.03
2023-11-01T14:41:33.432Z,55.00
2023-11-01T14:44:01.610Z,55.27
2023-11-01T14:46:29.273Z,55.37
2023-11-01T14:48:56.834Z,55.97
2023-11-01T14:51:25.201Z,64.03
2023-11-01T14:53:52.584Z,59.00
2023-11-01T14:56:20.024Z,58.00
2023-11-01T14:58:49.917Z,63.13
2023-11-01T15:01:17.301Z,65.00
2023-11-01T15:03:45.649Z,63.53
2023-11-01T15:06:13.800Z,57.53
2023-11-01T15:08:41.720Z,70.67
2023-11-01T15:11:12.158Z,55.47
2023-11-01T15:13:40.354Z,55.67
2023-11-01T15:16:08.436Z,56.70
2023-11-01T15:18:37.051Z,56.50
2023-11-01T15:21:05.087Z,77.30
2023-11-01T15:23:33.429Z,83.43
2023-11-01T15:26:01.809Z,73.03
2023-11-01T15:28:29.692Z,63.90
2023-11-01T15:30:57.345Z,56.43
2023-11-01T15:33:26.006Z,61.37
2023-11-01T15:35:54.718Z,54.03
2023-11-01T15:38:22.263Z,57.83
2023-11-01T15:40:49.688Z,54.57
2023-11-01T15:43:17.137Z,55.17
2023-11-01T15:45:45.204Z,55.53
2023-11-01T15:48:12.852Z,57.73
2023-11-01T15:50:43.368Z,56.67
2023-11-01T15:53:10.980Z,56.07
2023-11-01T15:55:38.714Z,56.23
2023-11-01T15:58:06.237Z,56.67
2023-11-01T16:00:33.729Z,56.40
2023-11-01T16:03:01.364Z,56.03
2023-11-01T16:05:28.940Z,57.77
2023-11-01T16:07:56.473Z,60.07
2023-11-01T16:10:23.849Z,59.13
2023-11-01T16:12:51.259Z,56.20
2023-11-01T16:15:18.845Z,55.70
2023-11-01T16:17:46.828Z,56.10
2023-11-01T16:20:14.381Z,55.57
2023-11-01T16:22:43.948Z,55.50
2023-11-01T16:25:12.384Z,55.70
2023-11-01T16:27:39.797Z,56.57
2023-11-01T16:30:07.976Z,57.77
2023-11-01T16:32:39.114Z,56.10
2023-11-01T16:35:07.766Z,57.17
2023-11-01T16:37:35.194Z,56.53
2023-11-01T16:40:06.625Z,54.97
2023-11-01T16:42:34.407Z,56.57
2023-11-01T16:45:01.992Z,55.73
2023-11-01T16:47:29.594Z,56.57
2023-11-01T16:49:57.230Z,57.63
2023-11-01T16:52:24.692Z,58.33
2023-11-01T16:54:52.245Z,59.70
2023-11-01T16:57:19.757Z,60.17
2023-11-01T16:59:47.224Z,59.70
2023-11-01T17:02:14.946Z,58.87
2023-11-01T17:04:42.950Z,60.63
2023-11-01T17:07:10.738Z,61.60
2023-11-01T17:09:38.549Z,63.10
2023-11-01T17:12:06.795Z,69.30
2023-11-01T17:14:34.468Z,67.63
2023-11-01T17:17:02.641Z,65.13
2023-11-01T17:19:30.102Z,67.67
2023-11-01T17:21:57.602Z,67.87
2023-11-01T17:24:27.206Z,66.87
2023-11-01T17:26:59.000Z,64.93
2023-11-01T17:29:32.782Z,68.23
2023-11-01T17:32:00.405Z,100.50
2023-11-01T17:34:32.783Z,74.80
2023-11-01T17:37:03.090Z,77.33
2023-11-01T17:39:40.390Z,78.60
2023-11-01T17:42:11.894Z,84.43
2023-11-01T17:44:41.710Z,81.53
2023-11-01T17:47:29.140Z,81.30
2023-11-01T17:49:58.071Z,81.60
2023-11-01T17:52:35.375Z,78.70
2023-11-01T17:55:06.479Z,77.33
2023-11-01T17:57:35.636Z,82.63
2023-11-01T18:00:05.088Z,78.73
2023-11-01T18:03:18.241Z,78.07
2023-11-01T18:05:48.590Z,75.63
2023-11-01T18:08:19.440Z,76.70
2023-11-01T18:10:53.983Z,79.90
2023-11-01T18:13:24.560Z,78.93
2023-11-01T18:15:55.257Z,74.83
2023-11-01T18:18:51.848Z,73.73
2023-11-01T18:21:28.612Z,74.77
2023-11-01T18:24:29.613Z,75.30
2023-11-01T18:26:56.813Z,75.30
2023-11-01T18:29:24.250Z,76.57
2023-11-01T18:31:51.683Z,71.37
2023-11-01T18:34:24.960Z,73.17
2023-11-01T18:36:54.025Z,72.83
2023-11-01T18:39:23.025Z,74.30
2023-11-01T18:41:51.700Z,71.03
2023-11-01T18:44:35.219Z,70.37
2023-11-01T18:47:03.117Z,70.23
2023-11-01T18:49:30.446Z,69.47
2023-11-01T18:52:01.417Z,71.23
2023-11-01T18:54:42.727Z,67.83
2023-11-01T18:57:36.373Z,68.93
2023-11-01T19:00:29.632Z,68.30
2023-11-01T19:03:05.241Z,66.27
2023-11-01T19:05:34.401Z,65.87
2023-11-01T19:08:02.198Z,65.97
2023-11-01T19:10:37.432Z,66.17
2023-11-01T19:13:04.849Z,66.90
2023-11-01T19:15:44.040Z,67.03
2023-11-01T19:18:20.092Z,64.60
2023-11-01T19:20:49.729Z,63.73
2023-11-01T19:23:18.470Z,67.17
2023-11-01T19:25:46.712Z,68.80
2023-11-01T19:28:14.283Z,67.70
2023-11-01T19:30:41.744Z,70.57
2023-11-01T19:33:16.941Z,70.23
2023-11-01T19:35:49.921Z,73.93
2023-11-01T19:38:20.990Z,74.17
2023-11-01T19:40:48.627Z,75.70
2023-11-01T19:43:17.118Z,77.27
2023-11-01T19:45:44.659Z,76.23
2023-11-01T19:48:12.377Z,77.87
2023-11-01T19:50:39.841Z,79.60
2023-11-01T19:53:07.456Z,75.33
2023-11-01T19:55:36.704Z,75.47
2023-11-01T19:58:04.403Z,74.33
2023-11-01T20:00:35.042Z,74.83
2023-11-01T20:03:04.187Z,74.17
2023-11-01T20:05:32.320Z,74.70
2023-11-01T20:08:00.028Z,75.43
2023-11-01T20:10:27.869Z,76.83
2023-11-01T20:12:55.347Z,74.97
2023-11-01T20:15:23.838Z,76.17
2023-11-01T20:17:51.338Z,74.67
2023-11-01T20:20:18.964Z,72.87
2023-11-01T20:22:46.377Z,72.10
2023-11-01T20:25:14.853Z,72.07
2023-11-01T20:27:43.497Z,70.87
2023-11-01T20:30:11.000Z,72.13
2023-11-01T20:32:38.520Z,69.47
2023-11-01T20:35:05.828Z,71.60
2023-11-01T20:37:33.971Z,71.10
2023-11-01T20:40:01.531Z,69.50
2023-11-01T20:42:29.107Z,69.97
2023-11-01T20:44:57.253Z,70.83
2023-11-01T20:47:24.758Z,71.67
2023-11-01T20:49:52.322Z,74.33
2023-11-01T20:52:20.838Z,73.27
2023-11-01T20:55:02.126Z,73.90
2023-11-01T20:57:32.682Z,71.93
2023-11-01T21:00:01.136Z,70.00
2023-11-01T21:02:29.205Z,70.50
2023-11-01T21:04:57.192Z,72.53
2023-11-01T21:07:27.826Z,70.50
2023-11-01T21:09:55.699Z,73.70
2023-11-01T21:12:23.536Z,72.57
2023-11-01T21:14:51.197Z,72.97
2023-11-01T21:17:18.736Z,73.93
2023-11-01T21:19:47.709Z,73.07
2023-11-01T21:22:16.176Z,73.43
2023-11-01T21:24:45.002Z,70.17
2023-11-01T21:27:12.512Z,71.17
2023-11-01T21:29:39.888Z,72.00
2023-11-01T21:32:07.457Z,71.83
2023-11-01T21:34:35.368Z,70.50
2023-11-01T21:37:02.823Z,71.73
2023-11-01T21:39:30.536Z,71.00
2023-11-01T21:42:00.068Z,72.07
2023-11-01T21:44:38.354Z,69.27
2023-11-01T21:47:14.189Z,70.93
2023-11-01T21:49:42.098Z,70.20
2023-11-01T21:52:23.381Z,69.53
2023-11-01T21:54:52.876Z,70.07
2023-11-01T21:57:31.545Z,67.03
2023-11-01T22:00:01.712Z,67.27
2023-11-01T22:02:50.767Z,65.20
2023-11-01T22:05:19.967Z,64.43
2023-11-01T22:07:48.027Z,66.03
2023-11-01T22:10:21.510Z,64.17
2023-11-01T22:12:50.840Z,62.93
2023-11-01T22:15:26.640Z,63.17
2023-11-01T22:17:54.153Z,63.60
2023-11-01T22:20:24.614Z,63.67
2023-11-01T22:23:01.036Z,63.77
2023-11-01T22:25:48.384Z,63.23
2023-11-01T22:28:15.871Z,64.47
2023-11-01T22:30:43.330Z,63.83
2023-11-01T22:33:15.031Z,63.40
2023-11-01T22:35:46.625Z,65.10
2023-11-01T22:38:16.496Z,62.83
2023-11-01T22:40:45.415Z,63.93
2023-11-01T22:43:15.604Z,64.33
2023-11-01T22:45:43.677Z,64.47
2023-11-01T22:48:12.657Z,63.13
2023-11-01T22:50:40.247Z,62.47
2023-11-01T22:53:07.715Z,62.83
2023-11-01T22:55:41.273Z,64.20
2023-11-01T22:58:10.796Z,63.83
2023-11-01T23:00:38.357Z,62.43
2023-11-01T23:03:06.527Z,62.37
2023-11-01T23:05:35.596Z,62.00
2023-11-01T23:08:03.645Z,63.27
2023-11-01T23:10:33.755Z,61.33
2023-11-01T23:13:01.855Z,63.77
2023-11-01T23:15:29.577Z,63.07
2023-11-01T23:17:57.982Z,62.80
2023-11-01T23:20:25.669Z,63.17
2023-11-01T23:22:54.018Z,64.43
2023-11-01T23:25:31.694Z,63.33
2023-11-01T23:28:05.601Z,63.90
2023-11-01T23:30:51.431Z,64.50
2023-11-01T23:33:20.146Z,64.13
2023-11-01T23:35:47.952Z,62.60
2023-11-01T23:38:16.099Z,62.17
2023-11-01T23:40:46.929Z,62.33
2023-11-01T23:43:14.811Z,62.07
2023-11-01T23:45:42.347Z,61.23
2023-11-01T23:48:10.427Z,60.30
2023-11-01T23:50:43.217Z,59.03
2023-11-01T23:53:19.005Z,59.90
2023-11-01T23:55:51.532Z,59.87
2023-11-01T23:58:36.336Z,59.73
